Airfield :
LOGIN :

Register | Disclaimer

   EN    FR    IT 

 










Legend :    VFR   Marginal VFR   IFR   Intensive IFR   Very Intensive IFR
Visi :
Ceiling :
>= 8 km
>= 3000ft
5 to 8 km
1000 to 3000 ft
1500m to 5 km
500 to 1000 ft
800 to 1500m
200 to 500 ft
< 800m
< 200 ft
Symbols :   Thunderstorms  Fog  Heavy snow  Heavy precipitations  Wind > 20 kt
SIGMETs :     Misc.  Thunderstorms  Icing  Turbulence  Mountain Waves  Volcanic Ashes







- Airport Elevation : 13 ft
- IATA code : OST


EBOS - Oostend bruges Int.

CURRENT METAR :
  • 172250Z 23010KT 5000 -RA BKN005 BKN007 06/05 Q1018 REDZ BECMG 33015KT 8000 NSW

EXPIRED METARs :
  • 172220Z 21012KT 2500 RADZ BKN005 BKN007 05/04 Q1018 BECMG 33015KT 6000 NSW
  • 172150Z 21013KT 2500 RADZ BKN005 BKN007 05/04 Q1018 BECMG 33015KT 6000 NSW
  • 172120Z 22014KT 2500 RA BKN005 BKN007 05/04 Q1019 REDZ TEMPO 4000 RADZ
  • 172050Z 21016KT 2500 RA BKN005 BKN007 05/04 Q1019 REDZ TEMPO 4000 RADZ
  • 172020Z 20015KT 4000 RADZ BKN007 BKN010 04/03 Q1019 TEMPO 2800

TAF TAF EBOS
Valid from the 17 at 18:00 until the 19 at 00:00 UTC


171710Z 1718/1824 20015G25KT 9999 SCT012 BKN020
BECMG 1718/1721 SCT008 BKN013
TEMPO 1719/1723 4500 RADZ BKN008
BECMG 1723/1801 SCT013 BKN025
PROB30
TEMPO 1801/1806 SHRA
BECMG 1807/1809 33013KT
No reported NOTAMs for that airfield.



MET'MAP, your aeronautical weather chart ! - Copyright ORBIFLY December 2007 - Disclaimer

ORBIFLY MET'MAP TEAM :

Programming & Development : Alexandra Zaïnal
Concept & Development : Baudouin d'Aumeries
Co-Development & Prog : Marc-Olivier Méhu
Technical & hardware support : Manuel Goepfert

Contact : metmap@orbifly.com




SOURCES & CREDITS :

   NOAA